LFRO/LAI METAR and TAF weather

Enter ICAO airport designator
Station Type Date Time Source
LFRO METAR 2021/01/16 03:00 UTC NOAA

LFRO 160300Z AUTO 19008KT 160V220 9999 -RA FEW013/// BKN074/// OVC086/// ///CB 06/05 Q1027


Station Type Date Time Source
LFRO Decoded METAR 2021/01/16 03:00 UTC NOAA

Lannion / Servel, France (LFRO) 48-45N 003-28W
Jan 15, 2021 - 10:00 PM EST / 2021.01.16 0300 UTC
Wind: from the S (190 degrees) at 9 MPH (8 KT) (direction variable):0
Visibility: greater than 7 mile(s):0
Sky conditions: overcast
Weather: light rain; Cumulonimbus clouds observed
Temperature: 42 F (6 C)
Dew Point: 41 F (5 C)
Relative Humidity: 93%
Pressure (altimeter): 30.33 in. Hg (1027 hPa)
ob: LFRO 160300Z AUTO 19008KT 160V220 9999 -RA FEW013/// BKN074/// OVC086/// ///CB 06/05 Q1027
cycle: 3

Station Type Date Time Source
LFRO TAF 2019/05/15 19:06 UTC NOAA

TAF LFRO 151936Z 1519/1612 CNL

Example: see airport list